sensor_id;sensor_type;location;lat;lon;timestamp;P1;durP1;ratioP1;P2;durP2;ratioP2
53907;SDS011;40469;47.998;7.794;2022-11-11T00:00:21;3.53;;;1.45;;
53907;SDS011;40469;47.998;7.794;2022-11-11T00:02:47;6.47;;;1.50;;
53907;SDS011;40469;47.998;7.794;2022-11-11T00:05:13;3.38;;;1.33;;
53907;SDS011;40469;47.998;7.794;2022-11-11T00:07:39;3.92;;;1.30;;
53907;SDS011;40469;47.998;7.794;2022-11-11T00:10:05;4.20;;;1.40;;
53907;SDS011;40469;47.998;7.794;2022-11-11T00:12:31;3.72;;;1.33;;
53907;SDS011;40469;47.998;7.794;2022-11-11T00:14:56;6.15;;;1.73;;
53907;SDS011;40469;47.998;7.794;2022-11-11T00:17:21;2.67;;;1.30;;
53907;SDS011;40469;47.998;7.794;2022-11-11T00:20:06;25.58;;;13.35;;
53907;SDS011;40469;47.998;7.794;2022-11-11T00:22:52;10.02;;;4.85;;
53907;SDS011;40469;47.998;7.794;2022-11-11T00:25:36;6.82;;;2.45;;
53907;SDS011;40469;47.998;7.794;2022-11-11T00:28:01;3.17;;;1.50;;
53907;SDS011;40469;47.998;7.794;2022-11-11T00:30:27;3.47;;;1.60;;
53907;SDS011;40469;47.998;7.794;2022-11-11T00:32:52;3.97;;;1.38;;
53907;SDS011;40469;47.998;7.794;2022-11-11T00:35:17;3.45;;;1.17;;
53907;SDS011;40469;47.998;7.794;2022-11-11T00:38:11;3.72;;;1.15;;
53907;SDS011;40469;47.998;7.794;2022-11-11T00:40:56;4.43;;;1.40;;
53907;SDS011;40469;47.998;7.794;2022-11-11T00:43:22;3.72;;;1.50;;
53907;SDS011;40469;47.998;7.794;2022-11-11T00:45:47;18.45;;;9.82;;
53907;SDS011;40469;47.998;7.794;2022-11-11T00:48:13;12.07;;;4.65;;
53907;SDS011;40469;47.998;7.794;2022-11-11T00:50:57;6.10;;;2.15;;
53907;SDS011;40469;47.998;7.794;2022-11-11T00:53:26;2.78;;;1.40;;
53907;SDS011;40469;47.998;7.794;2022-11-11T00:55:54;4.43;;;2.38;;
53907;SDS011;40469;47.998;7.794;2022-11-11T00:58:22;3.10;;;1.52;;
53907;SDS011;40469;47.998;7.794;2022-11-11T01:00:48;3.65;;;1.38;;
53907;SDS011;40469;47.998;7.794;2022-11-11T01:03:17;4.00;;;1.17;;
53907;SDS011;40469;47.998;7.794;2022-11-11T01:05:43;1.98;;;1.10;;
53907;SDS011;40469;47.998;7.794;2022-11-11T01:08:08;2.63;;;1.33;;
53907;SDS011;40469;47.998;7.794;2022-11-11T01:10:35;3.05;;;1.15;;
53907;SDS011;40469;47.998;7.794;2022-11-11T01:13:12;1.88;;;1.25;;
53907;SDS011;40469;47.998;7.794;2022-11-11T01:15:41;3.25;;;1.40;;
53907;SDS011;40469;47.998;7.794;2022-11-11T01:18:10;3.83;;;1.30;;
53907;SDS011;40469;47.998;7.794;2022-11-11T01:20:36;3.88;;;1.50;;
53907;SDS011;40469;47.998;7.794;2022-11-11T01:23:03;4.30;;;1.27;;
53907;SDS011;40469;47.998;7.794;2022-11-11T01:25:31;2.40;;;1.10;;
53907;SDS011;40469;47.998;7.794;2022-11-11T01:27:58;2.63;;;1.20;;
53907;SDS011;40469;47.998;7.794;2022-11-11T01:30:23;1.60;;;0.88;;
53907;SDS011;40469;47.998;7.794;2022-11-11T01:32:48;4.55;;;1.17;;
53907;SDS011;40469;47.998;7.794;2022-11-11T01:35:14;4.85;;;1.20;;
53907;SDS011;40469;47.998;7.794;2022-11-11T01:37:39;3.15;;;1.23;;
53907;SDS011;40469;47.998;7.794;2022-11-11T01:40:05;2.28;;;1.10;;
53907;SDS011;40469;47.998;7.794;2022-11-11T01:42:31;2.85;;;1.20;;
53907;SDS011;40469;47.998;7.794;2022-11-11T01:48:32;4.47;;;1.50;;
53907;SDS011;40469;47.998;7.794;2022-11-11T01:51:24;3.60;;;1.33;;
53907;SDS011;40469;47.998;7.794;2022-11-11T01:54:00;5.90;;;1.98;;
53907;SDS011;40469;47.998;7.794;2022-11-11T01:56:28;3.78;;;1.80;;
53907;SDS011;40469;47.998;7.794;2022-11-11T01:58:54;4.88;;;1.52;;
53907;SDS011;40469;47.998;7.794;2022-11-11T02:01:25;3.65;;;1.50;;
53907;SDS011;40469;47.998;7.794;2022-11-11T02:03:52;2.63;;;1.20;;
53907;SDS011;40469;47.998;7.794;2022-11-11T02:06:38;4.78;;;1.60;;
53907;SDS011;40469;47.998;7.794;2022-11-11T02:09:03;2.50;;;1.20;;
53907;SDS011;40469;47.998;7.794;2022-11-11T02:11:31;2.53;;;1.25;;
53907;SDS011;40469;47.998;7.794;2022-11-11T02:14:17;2.20;;;1.02;;
53907;SDS011;40469;47.998;7.794;2022-11-11T02:17:01;2.30;;;1.00;;
53907;SDS011;40469;47.998;7.794;2022-11-11T02:19:52;4.35;;;1.60;;
53907;SDS011;40469;47.998;7.794;2022-11-11T02:22:25;2.65;;;1.20;;
53907;SDS011;40469;47.998;7.794;2022-11-11T02:24:57;2.03;;;1.20;;
53907;SDS011;40469;47.998;7.794;2022-11-11T02:27:26;2.60;;;0.90;;
53907;SDS011;40469;47.998;7.794;2022-11-11T02:29:55;1.42;;;0.80;;
53907;SDS011;40469;47.998;7.794;2022-11-11T02:32:22;2.22;;;0.90;;
53907;SDS011;40469;47.998;7.794;2022-11-11T02:34:47;1.25;;;0.90;;
53907;SDS011;40469;47.998;7.794;2022-11-11T02:37:13;1.88;;;0.77;;
53907;SDS011;40469;47.998;7.794;2022-11-11T02:39:43;1.67;;;0.98;;
53907;SDS011;40469;47.998;7.794;2022-11-11T02:42:09;2.40;;;0.90;;
53907;SDS011;40469;47.998;7.794;2022-11-11T02:44:38;1.92;;;1.15;;
53907;SDS011;40469;47.998;7.794;2022-11-11T02:47:04;6.07;;;0.80;;
53907;SDS011;40469;47.998;7.794;2022-11-11T02:49:29;1.48;;;0.88;;
53907;SDS011;40469;47.998;7.794;2022-11-11T02:51:55;3.78;;;1.10;;
53907;SDS011;40469;47.998;7.794;2022-11-11T02:54:20;3.60;;;1.00;;
53907;SDS011;40469;47.998;7.794;2022-11-11T02:56:46;1.77;;;0.80;;
53907;SDS011;40469;47.998;7.794;2022-11-11T02:59:30;2.00;;;0.90;;
53907;SDS011;40469;47.998;7.794;2022-11-11T03:01:56;1.73;;;0.90;;
53907;SDS011;40469;47.998;7.794;2022-11-11T03:04:21;2.45;;;1.00;;
53907;SDS011;40469;47.998;7.794;2022-11-11T03:06:47;2.22;;;1.02;;
53907;SDS011;40469;47.998;7.794;2022-11-11T03:09:12;1.60;;;1.02;;
53907;SDS011;40469;47.998;7.794;2022-11-11T03:11:38;2.28;;;0.90;;
53907;SDS011;40469;47.998;7.794;2022-11-11T03:14:03;1.38;;;0.70;;
53907;SDS011;40469;47.998;7.794;2022-11-11T03:16:29;1.92;;;0.80;;
53907;SDS011;40469;47.998;7.794;2022-11-11T03:19:13;3.42;;;1.00;;
53907;SDS011;40469;47.998;7.794;2022-11-11T03:21:38;2.28;;;0.80;;
53907;SDS011;40469;47.998;7.794;2022-11-11T03:24:04;3.40;;;0.90;;
53907;SDS011;40469;47.998;7.794;2022-11-11T03:26:29;0.98;;;0.68;;
53907;SDS011;40469;47.998;7.794;2022-11-11T03:28:55;1.92;;;0.85;;
53907;SDS011;40469;47.998;7.794;2022-11-11T03:31:20;2.63;;;0.82;;
53907;SDS011;40469;47.998;7.794;2022-11-11T03:33:46;3.33;;;1.10;;
53907;SDS011;40469;47.998;7.794;2022-11-11T03:36:11;4.15;;;0.80;;
53907;SDS011;40469;47.998;7.794;2022-11-11T03:38:37;3.20;;;0.80;;
53907;SDS011;40469;47.998;7.794;2022-11-11T03:41:02;1.52;;;0.85;;
53907;SDS011;40469;47.998;7.794;2022-11-11T03:43:30;3.65;;;1.17;;
53907;SDS011;40469;47.998;7.794;2022-11-11T03:45:58;1.13;;;0.77;;
53907;SDS011;40469;47.998;7.794;2022-11-11T03:48:25;2.60;;;1.05;;
53907;SDS011;40469;47.998;7.794;2022-11-11T03:50:53;2.08;;;1.15;;
53907;SDS011;40469;47.998;7.794;2022-11-11T03:53:19;2.28;;;1.20;;
53907;SDS011;40469;47.998;7.794;2022-11-11T03:55:45;2.92;;;1.80;;
53907;SDS011;40469;47.998;7.794;2022-11-11T03:58:11;2.20;;;1.40;;
53907;SDS011;40469;47.998;7.794;2022-11-11T04:00:37;6.43;;;1.90;;
53907;SDS011;40469;47.998;7.794;2022-11-11T04:03:06;2.83;;;1.63;;
53907;SDS011;40469;47.998;7.794;2022-11-11T04:05:54;4.65;;;1.63;;
53907;SDS011;40469;47.998;7.794;2022-11-11T04:08:38;2.92;;;1.55;;
53907;SDS011;40469;47.998;7.794;2022-11-11T04:14:15;3.40;;;1.50;;
53907;SDS011;40469;47.998;7.794;2022-11-11T04:16:58;2.38;;;1.20;;
53907;SDS011;40469;47.998;7.794;2022-11-11T04:19:24;3.50;;;1.40;;
53907;SDS011;40469;47.998;7.794;2022-11-11T04:22:08;4.97;;;1.40;;
53907;SDS011;40469;47.998;7.794;2022-11-11T04:24:33;2.95;;;1.30;;
53907;SDS011;40469;47.998;7.794;2022-11-11T04:27:17;3.35;;;1.13;;
53907;SDS011;40469;47.998;7.794;2022-11-11T04:29:43;2.13;;;1.13;;
53907;SDS011;40469;47.998;7.794;2022-11-11T04:32:12;7.38;;;1.63;;
53907;SDS011;40469;47.998;7.794;2022-11-11T04:34:59;3.10;;;2.38;;
53907;SDS011;40469;47.998;7.794;2022-11-11T04:37:27;1.95;;;1.20;;
53907;SDS011;40469;47.998;7.794;2022-11-11T04:39:55;3.35;;;1.42;;
53907;SDS011;40469;47.998;7.794;2022-11-11T04:42:39;1.95;;;1.27;;
53907;SDS011;40469;47.998;7.794;2022-11-11T04:45:05;2.70;;;1.23;;
53907;SDS011;40469;47.998;7.794;2022-11-11T04:50:31;3.25;;;1.45;;
53907;SDS011;40469;47.998;7.794;2022-11-11T04:52:58;4.95;;;1.20;;
53907;SDS011;40469;47.998;7.794;2022-11-11T04:55:25;4.03;;;1.30;;
53907;SDS011;40469;47.998;7.794;2022-11-11T04:58:09;1.67;;;1.02;;
53907;SDS011;40469;47.998;7.794;2022-11-11T05:00:35;2.35;;;1.15;;
53907;SDS011;40469;47.998;7.794;2022-11-11T05:03:01;3.08;;;1.45;;
53907;SDS011;40469;47.998;7.794;2022-11-11T05:05:46;3.63;;;1.75;;
53907;SDS011;40469;47.998;7.794;2022-11-11T05:08:36;4.40;;;1.80;;
53907;SDS011;40469;47.998;7.794;2022-11-11T05:11:22;3.30;;;1.52;;
53907;SDS011;40469;47.998;7.794;2022-11-11T05:13:56;3.47;;;1.48;;
53907;SDS011;40469;47.998;7.794;2022-11-11T05:16:42;2.45;;;1.20;;
53907;SDS011;40469;47.998;7.794;2022-11-11T05:19:37;3.42;;;1.80;;
53907;SDS011;40469;47.998;7.794;2022-11-11T05:22:25;2.83;;;1.42;;
53907;SDS011;40469;47.998;7.794;2022-11-11T05:24:53;2.15;;;1.30;;
53907;SDS011;40469;47.998;7.794;2022-11-11T05:27:38;2.30;;;1.38;;
53907;SDS011;40469;47.998;7.794;2022-11-11T05:30:04;2.42;;;1.23;;
53907;SDS011;40469;47.998;7.794;2022-11-11T05:32:31;3.47;;;1.80;;
53907;SDS011;40469;47.998;7.794;2022-11-11T05:34:56;3.53;;;1.83;;
53907;SDS011;40469;47.998;7.794;2022-11-11T05:37:21;2.97;;;1.80;;
53907;SDS011;40469;47.998;7.794;2022-11-11T05:39:47;4.15;;;2.00;;
53907;SDS011;40469;47.998;7.794;2022-11-11T05:42:12;2.53;;;1.80;;
53907;SDS011;40469;47.998;7.794;2022-11-11T05:44:38;2.90;;;1.48;;
53907;SDS011;40469;47.998;7.794;2022-11-11T05:47:03;3.45;;;1.95;;
53907;SDS011;40469;47.998;7.794;2022-11-11T05:49:29;3.63;;;1.52;;
53907;SDS011;40469;47.998;7.794;2022-11-11T05:51:54;3.05;;;1.35;;
53907;SDS011;40469;47.998;7.794;2022-11-11T05:54:20;3.88;;;1.42;;
53907;SDS011;40469;47.998;7.794;2022-11-11T05:56:46;3.67;;;1.55;;
53907;SDS011;40469;47.998;7.794;2022-11-11T05:59:12;6.85;;;2.05;;
53907;SDS011;40469;47.998;7.794;2022-11-11T06:01:37;4.55;;;1.50;;
53907;SDS011;40469;47.998;7.794;2022-11-11T06:04:03;5.03;;;1.73;;
53907;SDS011;40469;47.998;7.794;2022-11-11T06:06:29;2.22;;;1.73;;
53907;SDS011;40469;47.998;7.794;2022-11-11T06:08:55;5.25;;;1.73;;
53907;SDS011;40469;47.998;7.794;2022-11-11T06:11:20;4.30;;;1.90;;
53907;SDS011;40469;47.998;7.794;2022-11-11T06:13:46;5.32;;;2.85;;
53907;SDS011;40469;47.998;7.794;2022-11-11T06:16:12;5.80;;;2.70;;
53907;SDS011;40469;47.998;7.794;2022-11-11T06:18:37;5.53;;;2.40;;
53907;SDS011;40469;47.998;7.794;2022-11-11T06:21:03;6.03;;;2.00;;
53907;SDS011;40469;47.998;7.794;2022-11-11T06:23:29;3.38;;;1.80;;
53907;SDS011;40469;47.998;7.794;2022-11-11T06:25:54;4.15;;;2.15;;
53907;SDS011;40469;47.998;7.794;2022-11-11T06:28:40;3.42;;;2.08;;
53907;SDS011;40469;47.998;7.794;2022-11-11T06:31:07;3.47;;;1.77;;
53907;SDS011;40469;47.998;7.794;2022-11-11T06:33:33;3.22;;;1.88;;
53907;SDS011;40469;47.998;7.794;2022-11-11T06:35:59;3.40;;;2.00;;
53907;SDS011;40469;47.998;7.794;2022-11-11T06:38:25;3.70;;;2.20;;
53907;SDS011;40469;47.998;7.794;2022-11-11T06:40:51;6.28;;;2.45;;
53907;SDS011;40469;47.998;7.794;2022-11-11T06:43:16;3.22;;;2.20;;
53907;SDS011;40469;47.998;7.794;2022-11-11T06:45:41;6.78;;;2.17;;
53907;SDS011;40469;47.998;7.794;2022-11-11T06:48:07;5.78;;;2.88;;
53907;SDS011;40469;47.998;7.794;2022-11-11T06:50:33;4.38;;;2.55;;
53907;SDS011;40469;47.998;7.794;2022-11-11T06:53:03;6.40;;;2.47;;
53907;SDS011;40469;47.998;7.794;2022-11-11T06:55:38;4.70;;;2.60;;
53907;SDS011;40469;47.998;7.794;2022-11-11T06:58:13;4.70;;;2.65;;
53907;SDS011;40469;47.998;7.794;2022-11-11T07:00:40;4.30;;;2.50;;
53907;SDS011;40469;47.998;7.794;2022-11-11T07:03:06;3.15;;;2.28;;
53907;SDS011;40469;47.998;7.794;2022-11-11T07:05:34;5.45;;;2.60;;
53907;SDS011;40469;47.998;7.794;2022-11-11T07:08:00;6.05;;;2.17;;
53907;SDS011;40469;47.998;7.794;2022-11-11T07:10:27;5.20;;;2.17;;
53907;SDS011;40469;47.998;7.794;2022-11-11T07:12:52;3.22;;;1.95;;
53907;SDS011;40469;47.998;7.794;2022-11-11T07:15:17;6.30;;;2.45;;
53907;SDS011;40469;47.998;7.794;2022-11-11T07:17:43;4.03;;;2.10;;
53907;SDS011;40469;47.998;7.794;2022-11-11T07:20:08;3.65;;;2.28;;
53907;SDS011;40469;47.998;7.794;2022-11-11T07:22:34;4.63;;;2.35;;
53907;SDS011;40469;47.998;7.794;2022-11-11T07:25:01;5.10;;;2.45;;
53907;SDS011;40469;47.998;7.794;2022-11-11T07:27:26;6.90;;;2.60;;
53907;SDS011;40469;47.998;7.794;2022-11-11T07:29:52;6.05;;;3.60;;
53907;SDS011;40469;47.998;7.794;2022-11-11T07:32:17;5.60;;;3.00;;
53907;SDS011;40469;47.998;7.794;2022-11-11T07:34:43;8.38;;;5.78;;
53907;SDS011;40469;47.998;7.794;2022-11-11T07:37:08;5.95;;;3.75;;
53907;SDS011;40469;47.998;7.794;2022-11-11T07:39:34;3.92;;;3.15;;
53907;SDS011;40469;47.998;7.794;2022-11-11T07:41:59;5.63;;;2.97;;
53907;SDS011;40469;47.998;7.794;2022-11-11T07:44:25;7.80;;;3.72;;
53907;SDS011;40469;47.998;7.794;2022-11-11T07:46:50;3.95;;;2.70;;
53907;SDS011;40469;47.998;7.794;2022-11-11T07:49:16;9.32;;;2.60;;
53907;SDS011;40469;47.998;7.794;2022-11-11T07:51:41;3.92;;;2.20;;
53907;SDS011;40469;47.998;7.794;2022-11-11T07:54:07;4.00;;;2.22;;
53907;SDS011;40469;47.998;7.794;2022-11-11T07:56:32;8.73;;;2.55;;
53907;SDS011;40469;47.998;7.794;2022-11-11T07:58:57;7.10;;;2.42;;
53907;SDS011;40469;47.998;7.794;2022-11-11T08:01:22;6.88;;;2.88;;
53907;SDS011;40469;47.998;7.794;2022-11-11T08:03:48;4.43;;;2.67;;
53907;SDS011;40469;47.998;7.794;2022-11-11T08:06:16;5.75;;;3.10;;
53907;SDS011;40469;47.998;7.794;2022-11-11T08:08:43;5.28;;;3.00;;
53907;SDS011;40469;47.998;7.794;2022-11-11T08:11:09;4.93;;;2.88;;
53907;SDS011;40469;47.998;7.794;2022-11-11T08:13:34;5.05;;;3.25;;
53907;SDS011;40469;47.998;7.794;2022-11-11T08:16:06;4.15;;;2.65;;
53907;SDS011;40469;47.998;7.794;2022-11-11T08:18:32;3.95;;;3.00;;
53907;SDS011;40469;47.998;7.794;2022-11-11T08:20:59;3.15;;;2.72;;
53907;SDS011;40469;47.998;7.794;2022-11-11T08:23:24;4.15;;;3.25;;
53907;SDS011;40469;47.998;7.794;2022-11-11T08:25:59;4.38;;;3.15;;
53907;SDS011;40469;47.998;7.794;2022-11-11T08:28:29;4.00;;;3.00;;
53907;SDS011;40469;47.998;7.794;2022-11-11T08:30:59;4.43;;;3.40;;
53907;SDS011;40469;47.998;7.794;2022-11-11T08:33:26;3.53;;;2.70;;
53907;SDS011;40469;47.998;7.794;2022-11-11T08:35:52;5.32;;;3.45;;
53907;SDS011;40469;47.998;7.794;2022-11-11T08:38:19;5.90;;;3.65;;
53907;SDS011;40469;47.998;7.794;2022-11-11T08:40:46;4.20;;;2.65;;
53907;SDS011;40469;47.998;7.794;2022-11-11T08:43:11;4.28;;;2.63;;
53907;SDS011;40469;47.998;7.794;2022-11-11T08:45:37;14.43;;;6.60;;
53907;SDS011;40469;47.998;7.794;2022-11-11T08:48:02;4.63;;;2.80;;
53907;SDS011;40469;47.998;7.794;2022-11-11T08:50:28;30.25;;;13.73;;
53907;SDS011;40469;47.998;7.794;2022-11-11T08:52:54;5.13;;;2.70;;
53907;SDS011;40469;47.998;7.794;2022-11-11T08:55:19;3.85;;;2.60;;
53907;SDS011;40469;47.998;7.794;2022-11-11T08:57:44;5.40;;;2.80;;
53907;SDS011;40469;47.998;7.794;2022-11-11T09:00:10;5.28;;;2.58;;
53907;SDS011;40469;47.998;7.794;2022-11-11T09:02:36;3.38;;;2.70;;
53907;SDS011;40469;47.998;7.794;2022-11-11T09:05:03;4.60;;;2.90;;
53907;SDS011;40469;47.998;7.794;2022-11-11T09:07:28;4.90;;;2.70;;
53907;SDS011;40469;47.998;7.794;2022-11-11T09:09:54;4.65;;;3.08;;
53907;SDS011;40469;47.998;7.794;2022-11-11T09:12:19;5.30;;;2.67;;
53907;SDS011;40469;47.998;7.794;2022-11-11T09:14:44;6.05;;;2.90;;
53907;SDS011;40469;47.998;7.794;2022-11-11T09:17:10;4.63;;;2.65;;
53907;SDS011;40469;47.998;7.794;2022-11-11T09:19:35;5.35;;;3.50;;
53907;SDS011;40469;47.998;7.794;2022-11-11T09:22:01;7.68;;;3.28;;
53907;SDS011;40469;47.998;7.794;2022-11-11T09:24:26;7.22;;;3.55;;
53907;SDS011;40469;47.998;7.794;2022-11-11T09:26:52;5.38;;;3.38;;
53907;SDS011;40469;47.998;7.794;2022-11-11T09:29:17;5.40;;;3.15;;
53907;SDS011;40469;47.998;7.794;2022-11-11T09:31:43;5.20;;;3.30;;
53907;SDS011;40469;47.998;7.794;2022-11-11T09:34:09;6.38;;;3.80;;
53907;SDS011;40469;47.998;7.794;2022-11-11T09:36:34;6.53;;;3.53;;
53907;SDS011;40469;47.998;7.794;2022-11-11T09:39:00;6.35;;;3.30;;
53907;SDS011;40469;47.998;7.794;2022-11-11T09:41:42;7.05;;;3.80;;
53907;SDS011;40469;47.998;7.794;2022-11-11T09:47:03;5.60;;;2.95;;
53907;SDS011;40469;47.998;7.794;2022-11-11T09:52:20;6.72;;;3.97;;
53907;SDS011;40469;47.998;7.794;2022-11-11T09:54:57;6.22;;;3.45;;
53907;SDS011;40469;47.998;7.794;2022-11-11T09:57:37;6.63;;;3.25;;
53907;SDS011;40469;47.998;7.794;2022-11-11T10:00:14;5.15;;;3.10;;
53907;SDS011;40469;47.998;7.794;2022-11-11T10:02:44;8.20;;;3.65;;
53907;SDS011;40469;47.998;7.794;2022-11-11T10:05:26;6.25;;;3.30;;
53907;SDS011;40469;47.998;7.794;2022-11-11T10:10:53;7.85;;;3.80;;
53907;SDS011;40469;47.998;7.794;2022-11-11T10:13:31;7.07;;;4.10;;
53907;SDS011;40469;47.998;7.794;2022-11-11T10:21:51;6.45;;;3.30;;
53907;SDS011;40469;47.998;7.794;2022-11-11T10:24:24;8.57;;;2.90;;
53907;SDS011;40469;47.998;7.794;2022-11-11T10:27:00;5.80;;;3.72;;
53907;SDS011;40469;47.998;7.794;2022-11-11T10:29:37;5.35;;;2.88;;
53907;SDS011;40469;47.998;7.794;2022-11-11T10:32:18;8.30;;;2.75;;
53907;SDS011;40469;47.998;7.794;2022-11-11T10:34:46;5.15;;;2.80;;
53907;SDS011;40469;47.998;7.794;2022-11-11T10:37:22;5.63;;;2.63;;
53907;SDS011;40469;47.998;7.794;2022-11-11T10:39:53;5.72;;;3.40;;
53907;SDS011;40469;47.998;7.794;2022-11-11T10:42:22;9.43;;;3.78;;
53907;SDS011;40469;47.998;7.794;2022-11-11T10:44:47;5.15;;;3.00;;
53907;SDS011;40469;47.998;7.794;2022-11-11T10:49:57;7.40;;;3.15;;
53907;SDS011;40469;47.998;7.794;2022-11-11T10:55:21;5.35;;;3.00;;
53907;SDS011;40469;47.998;7.794;2022-11-11T10:58:15;5.75;;;2.55;;
53907;SDS011;40469;47.998;7.794;2022-11-11T11:00:47;4.30;;;2.08;;
53907;SDS011;40469;47.998;7.794;2022-11-11T11:03:19;5.68;;;2.65;;
53907;SDS011;40469;47.998;7.794;2022-11-11T11:05:51;6.55;;;2.60;;
53907;SDS011;40469;47.998;7.794;2022-11-11T11:08:23;6.10;;;2.97;;
53907;SDS011;40469;47.998;7.794;2022-11-11T11:10:54;7.18;;;2.45;;
53907;SDS011;40469;47.998;7.794;2022-11-11T11:13:29;8.85;;;2.53;;
53907;SDS011;40469;47.998;7.794;2022-11-11T11:16:05;3.80;;;2.28;;
53907;SDS011;40469;47.998;7.794;2022-11-11T11:18:34;3.95;;;1.98;;
53907;SDS011;40469;47.998;7.794;2022-11-11T11:21:04;6.40;;;2.88;;
53907;SDS011;40469;47.998;7.794;2022-11-11T11:23:35;6.75;;;2.92;;
53907;SDS011;40469;47.998;7.794;2022-11-11T11:26:08;5.22;;;2.22;;
53907;SDS011;40469;47.998;7.794;2022-11-11T11:28:51;6.15;;;1.83;;
53907;SDS011;40469;47.998;7.794;2022-11-11T11:31:22;5.43;;;2.42;;
53907;SDS011;40469;47.998;7.794;2022-11-11T11:34:00;6.88;;;2.42;;
53907;SDS011;40469;47.998;7.794;2022-11-11T11:36:26;4.88;;;2.20;;
53907;SDS011;40469;47.998;7.794;2022-11-11T11:38:51;6.20;;;2.25;;
53907;SDS011;40469;47.998;7.794;2022-11-11T11:41:17;4.40;;;2.00;;
53907;SDS011;40469;47.998;7.794;2022-11-11T11:44:00;7.70;;;2.22;;
53907;SDS011;40469;47.998;7.794;2022-11-11T11:46:26;4.93;;;2.13;;
53907;SDS011;40469;47.998;7.794;2022-11-11T11:49:08;4.70;;;2.90;;
53907;SDS011;40469;47.998;7.794;2022-11-11T11:54:26;5.88;;;2.60;;
53907;SDS011;40469;47.998;7.794;2022-11-11T11:57:03;6.40;;;2.30;;
53907;SDS011;40469;47.998;7.794;2022-11-11T11:59:59;6.72;;;2.25;;
53907;SDS011;40469;47.998;7.794;2022-11-11T12:02:33;5.05;;;2.60;;
53907;SDS011;40469;47.998;7.794;2022-11-11T12:08:16;6.95;;;2.50;;
53907;SDS011;40469;47.998;7.794;2022-11-11T12:11:04;7.18;;;2.65;;
53907;SDS011;40469;47.998;7.794;2022-11-11T12:13:42;8.27;;;2.85;;
53907;SDS011;40469;47.998;7.794;2022-11-11T12:16:37;5.75;;;2.88;;
53907;SDS011;40469;47.998;7.794;2022-11-11T12:19:17;10.32;;;2.78;;
53907;SDS011;40469;47.998;7.794;2022-11-11T12:22:11;5.22;;;3.25;;
53907;SDS011;40469;47.998;7.794;2022-11-11T12:30:34;6.28;;;2.95;;
53907;SDS011;40469;47.998;7.794;2022-11-11T12:35:37;5.38;;;2.88;;
53907;SDS011;40469;47.998;7.794;2022-11-11T12:43:45;7.28;;;3.08;;
53907;SDS011;40469;47.998;7.794;2022-11-11T12:49:20;18.80;;;3.70;;
53907;SDS011;40469;47.998;7.794;2022-11-11T12:56:54;9.52;;;3.83;;
53907;SDS011;40469;47.998;7.794;2022-11-11T13:05:22;6.85;;;3.47;;
53907;SDS011;40469;47.998;7.794;2022-11-11T13:13:33;8.73;;;3.53;;
53907;SDS011;40469;47.998;7.794;2022-11-11T13:16:10;6.82;;;3.03;;
53907;SDS011;40469;47.998;7.794;2022-11-11T13:21:44;6.57;;;3.60;;
53907;SDS011;40469;47.998;7.794;2022-11-11T13:24:17;5.45;;;2.83;;
53907;SDS011;40469;47.998;7.794;2022-11-11T13:26:46;8.23;;;3.03;;
53907;SDS011;40469;47.998;7.794;2022-11-11T13:29:32;7.35;;;2.80;;
53907;SDS011;40469;47.998;7.794;2022-11-11T13:32:21;5.03;;;2.80;;
53907;SDS011;40469;47.998;7.794;2022-11-11T13:34:48;7.35;;;2.70;;
53907;SDS011;40469;47.998;7.794;2022-11-11T13:37:24;5.88;;;2.25;;
53907;SDS011;40469;47.998;7.794;2022-11-11T13:40:02;6.28;;;2.40;;
53907;SDS011;40469;47.998;7.794;2022-11-11T13:42:36;5.38;;;2.53;;
53907;SDS011;40469;47.998;7.794;2022-11-11T13:45:05;3.60;;;2.47;;
53907;SDS011;40469;47.998;7.794;2022-11-11T13:47:33;4.40;;;2.30;;
53907;SDS011;40469;47.998;7.794;2022-11-11T13:50:03;13.38;;;2.70;;
53907;SDS011;40469;47.998;7.794;2022-11-11T13:52:33;10.70;;;2.38;;
53907;SDS011;40469;47.998;7.794;2022-11-11T13:55:01;3.40;;;2.58;;
53907;SDS011;40469;47.998;7.794;2022-11-11T13:57:30;8.32;;;2.53;;
53907;SDS011;40469;47.998;7.794;2022-11-11T14:00:03;7.10;;;2.65;;
53907;SDS011;40469;47.998;7.794;2022-11-11T14:02:31;6.00;;;2.20;;
53907;SDS011;40469;47.998;7.794;2022-11-11T14:12:46;5.55;;;1.90;;
53907;SDS011;40469;47.998;7.794;2022-11-11T14:15:31;6.03;;;1.75;;
53907;SDS011;40469;47.998;7.794;2022-11-11T14:20:46;4.57;;;1.80;;
53907;SDS011;40469;47.998;7.794;2022-11-11T14:28:30;3.75;;;1.90;;
53907;SDS011;40469;47.998;7.794;2022-11-11T14:30:59;5.18;;;2.20;;
53907;SDS011;40469;47.998;7.794;2022-11-11T14:41:54;6.97;;;2.17;;
53907;SDS011;40469;47.998;7.794;2022-11-11T14:54:42;4.28;;;2.10;;
53907;SDS011;40469;47.998;7.794;2022-11-11T14:57:17;6.57;;;2.03;;
53907;SDS011;40469;47.998;7.794;2022-11-11T14:59:46;5.25;;;1.90;;
53907;SDS011;40469;47.998;7.794;2022-11-11T15:02:20;13.95;;;2.55;;
53907;SDS011;40469;47.998;7.794;2022-11-11T15:04:49;4.28;;;2.42;;
53907;SDS011;40469;47.998;7.794;2022-11-11T15:07:21;6.63;;;2.25;;
53907;SDS011;40469;47.998;7.794;2022-11-11T15:21:11;5.03;;;2.08;;
53907;SDS011;40469;47.998;7.794;2022-11-11T15:23:59;4.03;;;1.90;;
53907;SDS011;40469;47.998;7.794;2022-11-11T15:26:49;3.25;;;1.95;;
53907;SDS011;40469;47.998;7.794;2022-11-11T15:34:50;7.63;;;2.72;;
53907;SDS011;40469;47.998;7.794;2022-11-11T15:37:22;6.63;;;2.80;;
53907;SDS011;40469;47.998;7.794;2022-11-11T15:39:51;8.60;;;3.22;;
53907;SDS011;40469;47.998;7.794;2022-11-11T15:42:35;4.80;;;2.42;;
53907;SDS011;40469;47.998;7.794;2022-11-11T15:45:06;6.93;;;3.05;;
53907;SDS011;40469;47.998;7.794;2022-11-11T15:47:44;4.68;;;2.88;;
53907;SDS011;40469;47.998;7.794;2022-11-11T15:50:26;7.88;;;3.13;;
53907;SDS011;40469;47.998;7.794;2022-11-11T15:52:55;5.07;;;3.00;;
53907;SDS011;40469;47.998;7.794;2022-11-11T15:55:23;7.32;;;3.50;;
53907;SDS011;40469;47.998;7.794;2022-11-11T15:57:50;5.25;;;3.10;;
53907;SDS011;40469;47.998;7.794;2022-11-11T16:02:47;7.35;;;3.80;;
53907;SDS011;40469;47.998;7.794;2022-11-11T16:05:15;9.98;;;4.07;;
53907;SDS011;40469;47.998;7.794;2022-11-11T16:07:44;8.20;;;4.40;;
53907;SDS011;40469;47.998;7.794;2022-11-11T16:10:15;6.53;;;4.15;;
53907;SDS011;40469;47.998;7.794;2022-11-11T16:12:52;6.60;;;3.55;;
53907;SDS011;40469;47.998;7.794;2022-11-11T16:18:14;13.35;;;4.63;;
53907;SDS011;40469;47.998;7.794;2022-11-11T16:20:45;8.18;;;3.67;;
53907;SDS011;40469;47.998;7.794;2022-11-11T16:23:22;9.70;;;4.22;;
53907;SDS011;40469;47.998;7.794;2022-11-11T16:25:49;11.13;;;6.60;;
53907;SDS011;40469;47.998;7.794;2022-11-11T16:28:15;12.52;;;6.43;;
53907;SDS011;40469;47.998;7.794;2022-11-11T16:30:41;16.38;;;5.90;;
53907;SDS011;40469;47.998;7.794;2022-11-11T16:35:50;8.38;;;4.25;;
53907;SDS011;40469;47.998;7.794;2022-11-11T16:38:33;16.30;;;6.43;;
53907;SDS011;40469;47.998;7.794;2022-11-11T16:40:59;13.40;;;6.50;;
53907;SDS011;40469;47.998;7.794;2022-11-11T16:43:31;13.25;;;7.07;;
53907;SDS011;40469;47.998;7.794;2022-11-11T16:50:56;15.68;;;8.07;;
53907;SDS011;40469;47.998;7.794;2022-11-11T16:53:26;18.33;;;8.38;;
53907;SDS011;40469;47.998;7.794;2022-11-11T16:55:57;14.30;;;8.80;;
53907;SDS011;40469;47.998;7.794;2022-11-11T16:58:23;12.95;;;7.35;;
53907;SDS011;40469;47.998;7.794;2022-11-11T17:00:49;15.40;;;7.70;;
53907;SDS011;40469;47.998;7.794;2022-11-11T17:03:24;14.30;;;7.60;;
53907;SDS011;40469;47.998;7.794;2022-11-11T17:05:57;20.75;;;8.10;;
53907;SDS011;40469;47.998;7.794;2022-11-11T17:11:07;15.70;;;8.43;;
53907;SDS011;40469;47.998;7.794;2022-11-11T17:13:34;18.75;;;11.38;;
53907;SDS011;40469;47.998;7.794;2022-11-11T17:16:00;20.08;;;11.90;;
53907;SDS011;40469;47.998;7.794;2022-11-11T17:18:28;21.48;;;11.20;;
53907;SDS011;40469;47.998;7.794;2022-11-11T17:21:04;32.60;;;13.52;;
53907;SDS011;40469;47.998;7.794;2022-11-11T17:23:30;28.02;;;13.35;;